sensor_id;sensor_type;location;lat;lon;timestamp;P1;durP1;ratioP1;P2;durP2;ratioP2
26080;SDS011;13991;51.174;4.438;2023-04-01T00:00:29;14.10;;;1.30;;
26080;SDS011;13991;51.174;4.438;2023-04-01T00:02:55;8.33;;;1.57;;
26080;SDS011;13991;51.174;4.438;2023-04-01T00:05:21;7.13;;;1.67;;
26080;SDS011;13991;51.174;4.438;2023-04-01T00:07:46;8.67;;;1.70;;
26080;SDS011;13991;51.174;4.438;2023-04-01T00:10:12;13.70;;;1.27;;
26080;SDS011;13991;51.174;4.438;2023-04-01T00:12:39;9.60;;;1.73;;
26080;SDS011;13991;51.174;4.438;2023-04-01T00:15:06;8.23;;;1.17;;
26080;SDS011;13991;51.174;4.438;2023-04-01T00:17:34;7.97;;;1.57;;
26080;SDS011;13991;51.174;4.438;2023-04-01T00:20:00;9.10;;;1.73;;
26080;SDS011;13991;51.174;4.438;2023-04-01T00:22:27;10.17;;;2.27;;
26080;SDS011;13991;51.174;4.438;2023-04-01T00:24:53;15.03;;;1.60;;
26080;SDS011;13991;51.174;4.438;2023-04-01T00:27:19;9.87;;;2.17;;
26080;SDS011;13991;51.174;4.438;2023-04-01T00:29:45;13.03;;;2.30;;
26080;SDS011;13991;51.174;4.438;2023-04-01T00:32:12;9.33;;;2.30;;
26080;SDS011;13991;51.174;4.438;2023-04-01T00:34:38;10.80;;;2.93;;
26080;SDS011;13991;51.174;4.438;2023-04-01T00:37:05;10.13;;;2.13;;
26080;SDS011;13991;51.174;4.438;2023-04-01T00:39:31;13.60;;;2.53;;
26080;SDS011;13991;51.174;4.438;2023-04-01T00:41:58;11.30;;;2.43;;
26080;SDS011;13991;51.174;4.438;2023-04-01T00:44:31;17.10;;;2.50;;
26080;SDS011;13991;51.174;4.438;2023-04-01T00:46:59;15.23;;;2.83;;
26080;SDS011;13991;51.174;4.438;2023-04-01T00:49:27;16.20;;;3.10;;
26080;SDS011;13991;51.174;4.438;2023-04-01T00:51:57;8.90;;;3.20;;
26080;SDS011;13991;51.174;4.438;2023-04-01T00:54:26;12.33;;;3.97;;
26080;SDS011;13991;51.174;4.438;2023-04-01T00:56:55;16.13;;;3.77;;
26080;SDS011;13991;51.174;4.438;2023-04-01T00:59:27;19.57;;;4.00;;
26080;SDS011;13991;51.174;4.438;2023-04-01T01:01:58;13.27;;;3.93;;
26080;SDS011;13991;51.174;4.438;2023-04-01T01:04:28;12.37;;;3.40;;
26080;SDS011;13991;51.174;4.438;2023-04-01T01:15:37;15.57;;;4.87;;
26080;SDS011;13991;51.174;4.438;2023-04-01T01:18:09;12.17;;;5.17;;
26080;SDS011;13991;51.174;4.438;2023-04-01T01:24:05;15.73;;;5.00;;
26080;SDS011;13991;51.174;4.438;2023-04-01T01:27:13;13.83;;;5.00;;
26080;SDS011;13991;51.174;4.438;2023-04-01T01:37:54;18.20;;;5.97;;
26080;SDS011;13991;51.174;4.438;2023-04-01T01:40:32;23.83;;;6.53;;
26080;SDS011;13991;51.174;4.438;2023-04-01T01:43:05;21.57;;;5.87;;
26080;SDS011;13991;51.174;4.438;2023-04-01T01:45:35;18.20;;;5.43;;
26080;SDS011;13991;51.174;4.438;2023-04-01T01:48:04;15.90;;;3.63;;
26080;SDS011;13991;51.174;4.438;2023-04-01T01:50:31;19.17;;;3.93;;
26080;SDS011;13991;51.174;4.438;2023-04-01T01:53:05;9.57;;;3.30;;
26080;SDS011;13991;51.174;4.438;2023-04-01T01:55:33;15.07;;;3.27;;
26080;SDS011;13991;51.174;4.438;2023-04-01T01:58:20;14.03;;;3.97;;
26080;SDS011;13991;51.174;4.438;2023-04-01T02:00:50;11.03;;;4.10;;
26080;SDS011;13991;51.174;4.438;2023-04-01T02:03:20;10.67;;;4.10;;
26080;SDS011;13991;51.174;4.438;2023-04-01T02:05:50;12.67;;;4.30;;
26080;SDS011;13991;51.174;4.438;2023-04-01T02:11:09;12.13;;;4.80;;
26080;SDS011;13991;51.174;4.438;2023-04-01T02:16:07;11.87;;;5.03;;
26080;SDS011;13991;51.174;4.438;2023-04-01T02:18:38;11.70;;;3.60;;
26080;SDS011;13991;51.174;4.438;2023-04-01T02:21:06;9.07;;;4.90;;
26080;SDS011;13991;51.174;4.438;2023-04-01T02:23:33;17.10;;;4.23;;
26080;SDS011;13991;51.174;4.438;2023-04-01T02:26:02;5.80;;;3.97;;
26080;SDS011;13991;51.174;4.438;2023-04-01T02:28:31;15.67;;;4.90;;
26080;SDS011;13991;51.174;4.438;2023-04-01T02:30:58;8.00;;;4.23;;
26080;SDS011;13991;51.174;4.438;2023-04-01T02:33:27;9.33;;;4.47;;
26080;SDS011;13991;51.174;4.438;2023-04-01T02:35:55;8.33;;;4.33;;
26080;SDS011;13991;51.174;4.438;2023-04-01T02:38:21;9.07;;;4.03;;
26080;SDS011;13991;51.174;4.438;2023-04-01T02:40:48;10.07;;;3.80;;
26080;SDS011;13991;51.174;4.438;2023-04-01T02:43:16;12.23;;;4.40;;
26080;SDS011;13991;51.174;4.438;2023-04-01T02:45:43;6.10;;;3.03;;
26080;SDS011;13991;51.174;4.438;2023-04-01T02:48:09;10.30;;;3.30;;
26080;SDS011;13991;51.174;4.438;2023-04-01T02:50:35;7.60;;;3.33;;
26080;SDS011;13991;51.174;4.438;2023-04-01T02:53:01;7.27;;;3.50;;
26080;SDS011;13991;51.174;4.438;2023-04-01T02:55:28;10.30;;;2.97;;
26080;SDS011;13991;51.174;4.438;2023-04-01T02:57:55;6.40;;;3.37;;
26080;SDS011;13991;51.174;4.438;2023-04-01T03:00:21;8.73;;;2.83;;
26080;SDS011;13991;51.174;4.438;2023-04-01T03:02:46;4.60;;;2.53;;
26080;SDS011;13991;51.174;4.438;2023-04-01T03:05:12;9.10;;;2.43;;
26080;SDS011;13991;51.174;4.438;2023-04-01T03:07:38;4.67;;;2.07;;
26080;SDS011;13991;51.174;4.438;2023-04-01T03:10:05;6.57;;;1.83;;
26080;SDS011;13991;51.174;4.438;2023-04-01T03:12:31;3.33;;;2.03;;
26080;SDS011;13991;51.174;4.438;2023-04-01T03:14:57;4.80;;;1.93;;
26080;SDS011;13991;51.174;4.438;2023-04-01T03:17:22;7.17;;;2.57;;
26080;SDS011;13991;51.174;4.438;2023-04-01T03:19:48;3.80;;;2.30;;
26080;SDS011;13991;51.174;4.438;2023-04-01T03:22:14;6.07;;;2.50;;
26080;SDS011;13991;51.174;4.438;2023-04-01T03:24:40;10.93;;;3.33;;
26080;SDS011;13991;51.174;4.438;2023-04-01T03:27:06;8.27;;;3.00;;
26080;SDS011;13991;51.174;4.438;2023-04-01T03:29:31;7.37;;;2.70;;
26080;SDS011;13991;51.174;4.438;2023-04-01T03:31:57;5.07;;;3.20;;
26080;SDS011;13991;51.174;4.438;2023-04-01T03:34:24;9.60;;;2.73;;
26080;SDS011;13991;51.174;4.438;2023-04-01T03:36:51;8.40;;;3.60;;
26080;SDS011;13991;51.174;4.438;2023-04-01T03:39:17;13.57;;;3.10;;
26080;SDS011;13991;51.174;4.438;2023-04-01T03:41:46;9.47;;;3.60;;
26080;SDS011;13991;51.174;4.438;2023-04-01T03:44:11;9.57;;;3.67;;
26080;SDS011;13991;51.174;4.438;2023-04-01T03:46:37;6.93;;;3.83;;
26080;SDS011;13991;51.174;4.438;2023-04-01T03:49:06;7.73;;;3.67;;
26080;SDS011;13991;51.174;4.438;2023-04-01T03:51:36;10.20;;;4.07;;
26080;SDS011;13991;51.174;4.438;2023-04-01T03:54:03;9.07;;;3.60;;
26080;SDS011;13991;51.174;4.438;2023-04-01T03:56:29;12.90;;;3.93;;
26080;SDS011;13991;51.174;4.438;2023-04-01T03:58:55;12.97;;;3.57;;
26080;SDS011;13991;51.174;4.438;2023-04-01T04:01:21;11.57;;;4.00;;
26080;SDS011;13991;51.174;4.438;2023-04-01T04:03:47;7.37;;;3.73;;
26080;SDS011;13991;51.174;4.438;2023-04-01T04:06:14;15.33;;;4.40;;
26080;SDS011;13991;51.174;4.438;2023-04-01T04:08:41;13.70;;;5.23;;
26080;SDS011;13991;51.174;4.438;2023-04-01T04:11:07;12.93;;;4.90;;
26080;SDS011;13991;51.174;4.438;2023-04-01T04:13:34;8.90;;;5.57;;
26080;SDS011;13991;51.174;4.438;2023-04-01T04:16:00;12.37;;;5.20;;
26080;SDS011;13991;51.174;4.438;2023-04-01T04:18:27;13.07;;;6.00;;
26080;SDS011;13991;51.174;4.438;2023-04-01T04:20:52;8.40;;;5.37;;
26080;SDS011;13991;51.174;4.438;2023-04-01T04:23:18;17.17;;;5.23;;
26080;SDS011;13991;51.174;4.438;2023-04-01T04:25:57;20.57;;;6.20;;
26080;SDS011;13991;51.174;4.438;2023-04-01T04:28:27;10.30;;;5.37;;
26080;SDS011;13991;51.174;4.438;2023-04-01T04:30:54;11.97;;;4.97;;
26080;SDS011;13991;51.174;4.438;2023-04-01T04:33:20;15.93;;;5.40;;
26080;SDS011;13991;51.174;4.438;2023-04-01T04:35:47;13.97;;;4.83;;
26080;SDS011;13991;51.174;4.438;2023-04-01T04:38:13;15.73;;;5.40;;
26080;SDS011;13991;51.174;4.438;2023-04-01T04:40:39;14.23;;;4.90;;
26080;SDS011;13991;51.174;4.438;2023-04-01T04:43:05;10.80;;;4.37;;
26080;SDS011;13991;51.174;4.438;2023-04-01T04:45:31;9.40;;;3.93;;
26080;SDS011;13991;51.174;4.438;2023-04-01T04:47:57;7.80;;;4.37;;
26080;SDS011;13991;51.174;4.438;2023-04-01T04:50:23;7.17;;;3.83;;
26080;SDS011;13991;51.174;4.438;2023-04-01T04:52:49;9.90;;;4.30;;
26080;SDS011;13991;51.174;4.438;2023-04-01T04:55:15;7.67;;;3.80;;
26080;SDS011;13991;51.174;4.438;2023-04-01T04:57:41;10.37;;;4.77;;
26080;SDS011;13991;51.174;4.438;2023-04-01T05:00:07;15.23;;;4.10;;
26080;SDS011;13991;51.174;4.438;2023-04-01T05:02:35;11.77;;;4.77;;
26080;SDS011;13991;51.174;4.438;2023-04-01T05:05:01;7.30;;;3.03;;
26080;SDS011;13991;51.174;4.438;2023-04-01T05:07:26;7.77;;;3.30;;
26080;SDS011;13991;51.174;4.438;2023-04-01T05:09:52;5.73;;;2.70;;
26080;SDS011;13991;51.174;4.438;2023-04-01T05:12:18;5.00;;;2.63;;
26080;SDS011;13991;51.174;4.438;2023-04-01T05:14:43;4.47;;;2.40;;
26080;SDS011;13991;51.174;4.438;2023-04-01T05:17:10;3.77;;;2.60;;
26080;SDS011;13991;51.174;4.438;2023-04-01T05:19:37;8.33;;;2.83;;
26080;SDS011;13991;51.174;4.438;2023-04-01T05:22:03;8.80;;;3.40;;
26080;SDS011;13991;51.174;4.438;2023-04-01T05:24:30;6.97;;;2.90;;
26080;SDS011;13991;51.174;4.438;2023-04-01T05:26:55;9.23;;;3.03;;
26080;SDS011;13991;51.174;4.438;2023-04-01T05:29:22;7.13;;;2.90;;
26080;SDS011;13991;51.174;4.438;2023-04-01T05:31:49;5.33;;;2.67;;
26080;SDS011;13991;51.174;4.438;2023-04-01T05:34:14;11.20;;;4.83;;
26080;SDS011;13991;51.174;4.438;2023-04-01T05:36:41;13.33;;;4.80;;
26080;SDS011;13991;51.174;4.438;2023-04-01T05:39:07;6.07;;;3.90;;
26080;SDS011;13991;51.174;4.438;2023-04-01T05:41:36;8.70;;;4.93;;
26080;SDS011;13991;51.174;4.438;2023-04-01T05:44:03;7.73;;;4.37;;
26080;SDS011;13991;51.174;4.438;2023-04-01T05:46:30;9.90;;;3.90;;
26080;SDS011;13991;51.174;4.438;2023-04-01T05:48:56;9.80;;;4.00;;
26080;SDS011;13991;51.174;4.438;2023-04-01T05:51:22;13.07;;;5.63;;
26080;SDS011;13991;51.174;4.438;2023-04-01T05:53:48;15.30;;;6.43;;
26080;SDS011;13991;51.174;4.438;2023-04-01T05:56:14;15.37;;;6.60;;
26080;SDS011;13991;51.174;4.438;2023-04-01T05:58:40;9.30;;;6.57;;
26080;SDS011;13991;51.174;4.438;2023-04-01T06:01:07;8.87;;;3.93;;
26080;SDS011;13991;51.174;4.438;2023-04-01T06:03:34;12.73;;;5.23;;
26080;SDS011;13991;51.174;4.438;2023-04-01T06:06:00;9.10;;;5.10;;
26080;SDS011;13991;51.174;4.438;2023-04-01T06:08:26;8.20;;;3.83;;
26080;SDS011;13991;51.174;4.438;2023-04-01T06:38:28;14.33;;;6.63;;
26080;SDS011;13991;51.174;4.438;2023-04-01T06:49:03;4.00;;;2.07;;
26080;SDS011;13991;51.174;4.438;2023-04-01T06:54:28;2.63;;;1.50;;
26080;SDS011;13991;51.174;4.438;2023-04-01T06:57:02;5.43;;;2.03;;
26080;SDS011;13991;51.174;4.438;2023-04-01T06:59:47;2.27;;;1.57;;
26080;SDS011;13991;51.174;4.438;2023-04-01T07:02:48;3.83;;;1.57;;
26080;SDS011;13991;51.174;4.438;2023-04-01T07:05:13;3.77;;;1.97;;
26080;SDS011;13991;51.174;4.438;2023-04-01T07:07:47;5.77;;;2.40;;
26080;SDS011;13991;51.174;4.438;2023-04-01T07:10:17;2.60;;;1.90;;
26080;SDS011;13991;51.174;4.438;2023-04-01T07:12:54;2.83;;;1.87;;
26080;SDS011;13991;51.174;4.438;2023-04-01T07:15:28;5.63;;;2.63;;
26080;SDS011;13991;51.174;4.438;2023-04-01T07:18:02;5.17;;;2.50;;
26080;SDS011;13991;51.174;4.438;2023-04-01T07:20:35;3.60;;;1.70;;
26080;SDS011;13991;51.174;4.438;2023-04-01T07:23:02;3.30;;;2.30;;
26080;SDS011;13991;51.174;4.438;2023-04-01T07:25:46;6.80;;;2.50;;
26080;SDS011;13991;51.174;4.438;2023-04-01T07:28:17;4.00;;;2.87;;
26080;SDS011;13991;51.174;4.438;2023-04-01T07:30:51;7.40;;;2.80;;
26080;SDS011;13991;51.174;4.438;2023-04-01T07:36:10;5.60;;;2.67;;
26080;SDS011;13991;51.174;4.438;2023-04-01T07:39:05;4.50;;;3.03;;
26080;SDS011;13991;51.174;4.438;2023-04-01T07:56:01;4.10;;;3.10;;
26080;SDS011;13991;51.174;4.438;2023-04-01T08:01:32;4.93;;;3.30;;
26080;SDS011;13991;51.174;4.438;2023-04-01T08:15:28;4.23;;;1.97;;
26080;SDS011;13991;51.174;4.438;2023-04-01T08:18:13;6.17;;;2.00;;
26080;SDS011;13991;51.174;4.438;2023-04-01T08:21:50;2.27;;;1.13;;
26080;SDS011;13991;51.174;4.438;2023-04-01T08:23:59;5.87;;;1.33;;
26080;SDS011;13991;51.174;4.438;2023-04-01T08:26:35;2.30;;;1.40;;
26080;SDS011;13991;51.174;4.438;2023-04-01T08:31:49;5.13;;;1.17;;
26080;SDS011;13991;51.174;4.438;2023-04-01T08:34:21;3.83;;;1.70;;
26080;SDS011;13991;51.174;4.438;2023-04-01T08:36:52;6.90;;;1.57;;
26080;SDS011;13991;51.174;4.438;2023-04-01T08:42:16;2.40;;;1.50;;
26080;SDS011;13991;51.174;4.438;2023-04-01T09:21:24;1.73;;;1.10;;
26080;SDS011;13991;51.174;4.438;2023-04-01T09:27:03;5.00;;;1.13;;
26080;SDS011;13991;51.174;4.438;2023-04-01T09:32:47;2.27;;;0.70;;
26080;SDS011;13991;51.174;4.438;2023-04-01T09:46:18;1.13;;;0.73;;
26080;SDS011;13991;51.174;4.438;2023-04-01T09:52:06;3.57;;;1.50;;
26080;SDS011;13991;51.174;4.438;2023-04-01T09:54:58;1.03;;;0.97;;
26080;SDS011;13991;51.174;4.438;2023-04-01T10:16:39;5.73;;;2.30;;
26080;SDS011;13991;51.174;4.438;2023-04-01T10:30:29;6.07;;;2.20;;
26080;SDS011;13991;51.174;4.438;2023-04-01T10:58:44;6.00;;;2.10;;
26080;SDS011;13991;51.174;4.438;2023-04-01T11:01:22;11.00;;;1.90;;
26080;SDS011;13991;51.174;4.438;2023-04-01T11:18:41;6.60;;;2.37;;
26080;SDS011;13991;51.174;4.438;2023-04-01T11:21:34;13.43;;;3.37;;
26080;SDS011;13991;51.174;4.438;2023-04-01T11:27:03;10.17;;;4.90;;
26080;SDS011;13991;51.174;4.438;2023-04-01T11:38:02;11.20;;;2.80;;
26080;SDS011;13991;51.174;4.438;2023-04-01T11:40:35;7.80;;;2.90;;
26080;SDS011;13991;51.174;4.438;2023-04-01T11:46:15;11.40;;;1.90;;
26080;SDS011;13991;51.174;4.438;2023-04-01T11:54:34;6.40;;;2.10;;
26080;SDS011;13991;51.174;4.438;2023-04-01T11:57:42;6.13;;;1.33;;
26080;SDS011;13991;51.174;4.438;2023-04-01T12:06:41;7.60;;;1.53;;
26080;SDS011;13991;51.174;4.438;2023-04-01T12:09:25;2.53;;;1.23;;
26080;SDS011;13991;51.174;4.438;2023-04-01T12:17:41;9.97;;;2.73;;
26080;SDS011;13991;51.174;4.438;2023-04-01T12:36:56;5.30;;;2.23;;
26080;SDS011;13991;51.174;4.438;2023-04-01T12:45:33;1.37;;;1.27;;
26080;SDS011;13991;51.174;4.438;2023-04-01T12:50:42;3.33;;;2.00;;
26080;SDS011;13991;51.174;4.438;2023-04-01T12:56:12;4.83;;;3.03;;
26080;SDS011;13991;51.174;4.438;2023-04-01T13:01:49;6.70;;;3.60;;
26080;SDS011;13991;51.174;4.438;2023-04-01T13:04:51;6.67;;;4.00;;
26080;SDS011;13991;51.174;4.438;2023-04-01T13:15:54;7.30;;;2.43;;
26080;SDS011;13991;51.174;4.438;2023-04-01T13:21:38;5.70;;;3.33;;
26080;SDS011;13991;51.174;4.438;2023-04-01T13:24:13;11.73;;;4.70;;
26080;SDS011;13991;51.174;4.438;2023-04-01T13:30:08;14.57;;;8.23;;
26080;SDS011;13991;51.174;4.438;2023-04-01T13:44:12;10.63;;;7.37;;
26080;SDS011;13991;51.174;4.438;2023-04-01T14:33:51;4.97;;;1.93;;
26080;SDS011;13991;51.174;4.438;2023-04-01T14:36:41;13.07;;;2.20;;
26080;SDS011;13991;51.174;4.438;2023-04-01T14:50:41;4.27;;;1.40;;
26080;SDS011;13991;51.174;4.438;2023-04-01T14:53:26;2.63;;;1.43;;
26080;SDS011;13991;51.174;4.438;2023-04-01T14:55:56;1.47;;;1.30;;
26080;SDS011;13991;51.174;4.438;2023-04-01T14:58:25;5.23;;;1.53;;
26080;SDS011;13991;51.174;4.438;2023-04-01T15:03:48;6.50;;;2.50;;
26080;SDS011;13991;51.174;4.438;2023-04-01T15:20:31;6.30;;;1.63;;
26080;SDS011;13991;51.174;4.438;2023-04-01T15:25:51;3.73;;;1.57;;
26080;SDS011;13991;51.174;4.438;2023-04-01T15:30:56;8.53;;;3.73;;
26080;SDS011;13991;51.174;4.438;2023-04-01T15:33:43;8.93;;;3.73;;
26080;SDS011;13991;51.174;4.438;2023-04-01T15:44:33;6.37;;;3.30;;
26080;SDS011;13991;51.174;4.438;2023-04-01T15:49:53;7.50;;;1.47;;
26080;SDS011;13991;51.174;4.438;2023-04-01T16:00:27;5.43;;;1.70;;
26080;SDS011;13991;51.174;4.438;2023-04-01T16:12:11;6.97;;;4.90;;
26080;SDS011;13991;51.174;4.438;2023-04-01T16:14:55;6.50;;;4.17;;
26080;SDS011;13991;51.174;4.438;2023-04-01T16:20:22;12.77;;;5.33;;
26080;SDS011;13991;51.174;4.438;2023-04-01T16:22:58;10.20;;;6.70;;
26080;SDS011;13991;51.174;4.438;2023-04-01T16:28:27;10.43;;;6.17;;
26080;SDS011;13991;51.174;4.438;2023-04-01T16:31:05;12.17;;;6.07;;
26080;SDS011;13991;51.174;4.438;2023-04-01T16:38:40;9.57;;;4.23;;
26080;SDS011;13991;51.174;4.438;2023-04-01T16:41:25;7.77;;;3.97;;
26080;SDS011;13991;51.174;4.438;2023-04-01T16:44:08;15.60;;;4.80;;
26080;SDS011;13991;51.174;4.438;2023-04-01T16:46:44;10.57;;;4.00;;
26080;SDS011;13991;51.174;4.438;2023-04-01T16:49:23;10.63;;;2.97;;
26080;SDS011;13991;51.174;4.438;2023-04-01T16:54:42;5.57;;;2.67;;
26080;SDS011;13991;51.174;4.438;2023-04-01T16:57:30;6.07;;;2.77;;
26080;SDS011;13991;51.174;4.438;2023-04-01T17:03:38;10.87;;;3.17;;
26080;SDS011;13991;51.174;4.438;2023-04-01T17:17:49;7.50;;;1.93;;
26080;SDS011;13991;51.174;4.438;2023-04-01T17:23:36;3.47;;;1.53;;
26080;SDS011;13991;51.174;4.438;2023-04-01T17:35:01;6.90;;;2.97;;
26080;SDS011;13991;51.174;4.438;2023-04-01T17:37:45;12.77;;;6.90;;
26080;SDS011;13991;51.174;4.438;2023-04-01T18:03:18;19.77;;;6.13;;
26080;SDS011;13991;51.174;4.438;2023-04-01T18:06:03;29.80;;;10.87;;
26080;SDS011;13991;51.174;4.438;2023-04-01T18:11:49;42.00;;;15.80;;
26080;SDS011;13991;51.174;4.438;2023-04-01T18:22:46;32.10;;;11.83;;
26080;SDS011;13991;51.174;4.438;2023-04-01T18:25:33;27.83;;;8.97;;
26080;SDS011;13991;51.174;4.438;2023-04-01T18:30:50;54.30;;;15.90;;
26080;SDS011;13991;51.174;4.438;2023-04-01T18:33:21;51.93;;;10.93;;
26080;SDS011;13991;51.174;4.438;2023-04-01T18:36:03;34.20;;;9.00;;
26080;SDS011;13991;51.174;4.438;2023-04-01T18:38:50;33.60;;;8.43;;
26080;SDS011;13991;51.174;4.438;2023-04-01T18:52:24;20.23;;;6.80;;
26080;SDS011;13991;51.174;4.438;2023-04-01T18:58:06;46.57;;;12.40;;
26080;SDS011;13991;51.174;4.438;2023-04-01T19:00:42;36.73;;;12.83;;
26080;SDS011;13991;51.174;4.438;2023-04-01T19:03:48;48.33;;;15.93;;
26080;SDS011;13991;51.174;4.438;2023-04-01T19:09:14;32.87;;;13.00;;
26080;SDS011;13991;51.174;4.438;2023-04-01T19:15:26;32.87;;;12.30;;
26080;SDS011;13991;51.174;4.438;2023-04-01T19:20:26;40.17;;;12.17;;
26080;SDS011;13991;51.174;4.438;2023-04-01T19:26:17;37.73;;;12.57;;
26080;SDS011;13991;51.174;4.438;2023-04-01T19:35:06;44.60;;;14.80;;
26080;SDS011;13991;51.174;4.438;2023-04-01T19:37:51;40.57;;;14.53;;
26080;SDS011;13991;51.174;4.438;2023-04-01T19:40:42;46.17;;;16.00;;
26080;SDS011;13991;51.174;4.438;2023-04-01T19:43:26;39.90;;;16.30;;
26080;SDS011;13991;51.174;4.438;2023-04-01T19:45:56;46.80;;;15.87;;
26080;SDS011;13991;51.174;4.438;2023-04-01T19:56:42;39.87;;;15.43;;
26080;SDS011;13991;51.174;4.438;2023-04-01T20:04:48;34.73;;;15.07;;
26080;SDS011;13991;51.174;4.438;2023-04-01T20:07:28;34.63;;;14.17;;
26080;SDS011;13991;51.174;4.438;2023-04-01T20:10:21;27.93;;;13.67;;
26080;SDS011;13991;51.174;4.438;2023-04-01T20:18:15;28.30;;;12.83;;
26080;SDS011;13991;51.174;4.438;2023-04-01T20:21:02;17.47;;;9.10;;
26080;SDS011;13991;51.174;4.438;2023-04-01T20:26:35;19.13;;;10.60;;
26080;SDS011;13991;51.174;4.438;2023-04-01T20:32:16;20.03;;;10.17;;
26080;SDS011;13991;51.174;4.438;2023-04-01T20:40:26;16.37;;;8.40;;
26080;SDS011;13991;51.174;4.438;2023-04-01T20:45:55;13.97;;;8.27;;
26080;SDS011;13991;51.174;4.438;2023-04-01T20:48:40;13.43;;;8.17;;
26080;SDS011;13991;51.174;4.438;2023-04-01T20:51:23;12.20;;;7.87;;
26080;SDS011;13991;51.174;4.438;2023-04-01T21:05:08;9.93;;;5.37;;
26080;SDS011;13991;51.174;4.438;2023-04-01T21:16:11;8.10;;;5.80;;
26080;SDS011;13991;51.174;4.438;2023-04-01T21:27:37;9.80;;;7.00;;
26080;SDS011;13991;51.174;4.438;2023-04-01T21:37:35;13.37;;;8.33;;
26080;SDS011;13991;51.174;4.438;2023-04-01T21:48:23;12.83;;;9.37;;
26080;SDS011;13991;51.174;4.438;2023-04-01T21:54:06;16.37;;;10.30;;
26080;SDS011;13991;51.174;4.438;2023-04-01T22:00:13;17.10;;;11.30;;
26080;SDS011;13991;51.174;4.438;2023-04-01T22:05:36;17.47;;;11.47;;
26080;SDS011;13991;51.174;4.438;2023-04-01T22:13:37;14.80;;;10.90;;
26080;SDS011;13991;51.174;4.438;2023-04-01T22:21:43;16.10;;;11.17;;
26080;SDS011;13991;51.174;4.438;2023-04-01T22:32:40;17.80;;;11.97;;
26080;SDS011;13991;51.174;4.438;2023-04-01T22:35:55;21.77;;;12.50;;
26080;SDS011;13991;51.174;4.438;2023-04-01T22:40:34;17.17;;;11.57;;
26080;SDS011;13991;51.174;4.438;2023-04-01T22:43:13;17.03;;;11.17;;
26080;SDS011;13991;51.174;4.438;2023-04-01T22:52:01;20.17;;;12.73;;
26080;SDS011;13991;51.174;4.438;2023-04-01T22:54:48;25.10;;;13.70;;
26080;SDS011;13991;51.174;4.438;2023-04-01T22:59:58;21.37;;;13.80;;
26080;SDS011;13991;51.174;4.438;2023-04-01T23:02:36;23.53;;;14.77;;
26080;SDS011;13991;51.174;4.438;2023-04-01T23:05:05;23.50;;;14.10;;
26080;SDS011;13991;51.174;4.438;2023-04-01T23:10:25;23.33;;;14.80;;
26080;SDS011;13991;51.174;4.438;2023-04-01T23:13:31;27.67;;;15.37;;
26080;SDS011;13991;51.174;4.438;2023-04-01T23:15:59;25.17;;;15.40;;
26080;SDS011;13991;51.174;4.438;2023-04-01T23:18:30;26.50;;;14.93;;
26080;SDS011;13991;51.174;4.438;2023-04-01T23:23:59;26.63;;;15.03;;
26080;SDS011;13991;51.174;4.438;2023-04-01T23:29:30;32.77;;;15.67;;
26080;SDS011;13991;51.174;4.438;2023-04-01T23:32:04;23.30;;;14.13;;
26080;SDS011;13991;51.174;4.438;2023-04-01T23:34:38;24.10;;;15.33;;
26080;SDS011;13991;51.174;4.438;2023-04-01T23:37:05;21.90;;;14.30;;
26080;SDS011;13991;51.174;4.438;2023-04-01T23:39:37;19.03;;;12.77;;
26080;SDS011;13991;51.174;4.438;2023-04-01T23:42:21;18.67;;;11.80;;
26080;SDS011;13991;51.174;4.438;2023-04-01T23:44:48;19.30;;;11.77;;
26080;SDS011;13991;51.174;4.438;2023-04-01T23:47:24;19.57;;;11.90;;
26080;SDS011;13991;51.174;4.438;2023-04-01T23:49:58;18.60;;;12.40;;
26080;SDS011;13991;51.174;4.438;2023-04-01T23:52:36;21.90;;;12.43;;
26080;SDS011;13991;51.174;4.438;2023-04-01T23:55:22;17.90;;;11.67;;
26080;SDS011;13991;51.174;4.438;2023-04-01T23:58:12;19.30;;;12.27;;
